sensor_id;sensor_type;location;lat;lon;timestamp;pressure;altitude;pressure_sealevel;temperature;humidity
20394;BME280;10356;50.544;9.642;2023-08-24T00:02:00;98517.31;;;16.46;95.00
20394;BME280;10356;50.544;9.642;2023-08-24T00:04:27;98518.44;;;16.43;95.00
20394;BME280;10356;50.544;9.642;2023-08-24T00:06:53;98524.81;;;16.41;95.22
20394;BME280;10356;50.544;9.642;2023-08-24T00:09:20;98524.97;;;16.39;95.71
20394;BME280;10356;50.544;9.642;2023-08-24T00:11:47;98515.56;;;16.37;95.72
20394;BME280;10356;50.544;9.642;2023-08-24T00:14:14;98516.00;;;16.32;96.30
20394;BME280;10356;50.544;9.642;2023-08-24T00:16:42;98505.78;;;16.29;96.69
20394;BME280;10356;50.544;9.642;2023-08-24T00:19:08;98507.75;;;16.27;96.77
20394;BME280;10356;50.544;9.642;2023-08-24T00:21:35;98507.91;;;16.26;96.74
20394;BME280;10356;50.544;9.642;2023-08-24T00:24:01;98516.31;;;16.29;96.40
20394;BME280;10356;50.544;9.642;2023-08-24T00:26:28;98509.16;;;16.22;96.40
20394;BME280;10356;50.544;9.642;2023-08-24T00:28:55;98501.72;;;16.17;96.42
20394;BME280;10356;50.544;9.642;2023-08-24T00:31:22;98499.53;;;16.13;96.85
20394;BME280;10356;50.544;9.642;2023-08-24T00:33:49;98505.09;;;16.10;97.06
20394;BME280;10356;50.544;9.642;2023-08-24T00:36:16;98501.91;;;16.06;97.17
20394;BME280;10356;50.544;9.642;2023-08-24T00:38:44;98503.03;;;16.04;97.22
20394;BME280;10356;50.544;9.642;2023-08-24T00:41:12;98499.88;;;16.00;97.92
20394;BME280;10356;50.544;9.642;2023-08-24T00:43:39;98489.34;;;16.00;97.98
20394;BME280;10356;50.544;9.642;2023-08-24T00:46:06;98491.44;;;15.96;98.08
20394;BME280;10356;50.544;9.642;2023-08-24T00:48:34;98490.78;;;15.94;98.14
20394;BME280;10356;50.544;9.642;2023-08-24T00:51:01;98485.00;;;15.91;98.02
20394;BME280;10356;50.544;9.642;2023-08-24T00:53:29;98492.88;;;15.91;97.92
20394;BME280;10356;50.544;9.642;2023-08-24T00:55:56;98497.44;;;15.89;98.17
20394;BME280;10356;50.544;9.642;2023-08-24T00:58:23;98495.41;;;15.83;98.63
20394;BME280;10356;50.544;9.642;2023-08-24T01:00:51;98491.09;;;15.82;98.67
20394;BME280;10356;50.544;9.642;2023-08-24T01:03:18;98486.16;;;15.79;99.18
20394;BME280;10356;50.544;9.642;2023-08-24T01:05:46;98486.31;;;15.77;99.38
20394;BME280;10356;50.544;9.642;2023-08-24T01:08:13;98493.19;;;15.78;99.43
20394;BME280;10356;50.544;9.642;2023-08-24T01:10:44;98485.31;;;15.78;99.42
20394;BME280;10356;50.544;9.642;2023-08-24T01:13:20;98486.16;;;15.79;99.46
20394;BME280;10356;50.544;9.642;2023-08-24T01:15:51;98494.47;;;15.74;99.68
20394;BME280;10356;50.544;9.642;2023-08-24T01:18:23;98490.47;;;15.70;99.67
20394;BME280;10356;50.544;9.642;2023-08-24T01:20:53;98490.47;;;15.70;99.82
20394;BME280;10356;50.544;9.642;2023-08-24T01:23:32;98501.28;;;15.67;100.00
20394;BME280;10356;50.544;9.642;2023-08-24T01:26:08;98501.97;;;15.69;100.00
20394;BME280;10356;50.544;9.642;2023-08-24T01:28:36;98505.03;;;15.65;100.00
20394;BME280;10356;50.544;9.642;2023-08-24T01:31:03;98508.47;;;15.65;100.00
20394;BME280;10356;50.544;9.642;2023-08-24T01:33:30;98506.28;;;15.61;100.00
20394;BME280;10356;50.544;9.642;2023-08-24T01:35:57;98505.44;;;15.60;100.00
20394;BME280;10356;50.544;9.642;2023-08-24T01:38:23;98512.50;;;15.60;100.00
20394;BME280;10356;50.544;9.642;2023-08-24T01:40:54;98505.16;;;15.63;100.00
20394;BME280;10356;50.544;9.642;2023-08-24T01:43:29;98509.44;;;15.64;100.00
20394;BME280;10356;50.544;9.642;2023-08-24T01:46:00;98502.53;;;15.63;100.00
20394;BME280;10356;50.544;9.642;2023-08-24T01:48:28;98500.88;;;15.62;100.00
20394;BME280;10356;50.544;9.642;2023-08-24T01:50:56;98506.13;;;15.62;100.00
20394;BME280;10356;50.544;9.642;2023-08-24T01:53:23;98493.00;;;15.62;100.00
20394;BME280;10356;50.544;9.642;2023-08-24T01:55:49;98498.56;;;15.59;100.00
20394;BME280;10356;50.544;9.642;2023-08-24T01:58:16;98501.19;;;15.59;100.00
20394;BME280;10356;50.544;9.642;2023-08-24T02:00:44;98496.19;;;15.56;100.00
20394;BME280;10356;50.544;9.642;2023-08-24T02:03:10;98498.97;;;15.55;100.00
20394;BME280;10356;50.544;9.642;2023-08-24T02:05:37;98504.50;;;15.52;100.00
20394;BME280;10356;50.544;9.642;2023-08-24T02:08:04;98498.44;;;15.51;100.00
20394;BME280;10356;50.544;9.642;2023-08-24T02:10:29;98496.78;;;15.50;100.00
20394;BME280;10356;50.544;9.642;2023-08-24T02:12:56;98503.97;;;15.48;100.00
20394;BME280;10356;50.544;9.642;2023-08-24T02:15:22;98504.25;;;15.45;100.00
20394;BME280;10356;50.544;9.642;2023-08-24T02:17:50;98502.31;;;15.47;100.00
20394;BME280;10356;50.544;9.642;2023-08-24T02:20:17;98499.00;;;15.45;100.00
20394;BME280;10356;50.544;9.642;2023-08-24T02:22:43;98500.94;;;15.43;100.00
20394;BME280;10356;50.544;9.642;2023-08-24T02:25:10;98498.41;;;15.42;100.00
20394;BME280;10356;50.544;9.642;2023-08-24T02:27:36;98495.94;;;15.40;100.00
20394;BME280;10356;50.544;9.642;2023-08-24T02:30:03;98497.19;;;15.36;100.00
20394;BME280;10356;50.544;9.642;2023-08-24T02:32:30;98494.72;;;15.35;100.00
20394;BME280;10356;50.544;9.642;2023-08-24T02:34:58;98487.25;;;15.30;100.00
20394;BME280;10356;50.544;9.642;2023-08-24T02:37:25;98478.69;;;15.28;100.00
20394;BME280;10356;50.544;9.642;2023-08-24T02:39:52;98479.66;;;15.27;100.00
20394;BME280;10356;50.544;9.642;2023-08-24T02:42:19;98488.50;;;15.26;100.00
20394;BME280;10356;50.544;9.642;2023-08-24T02:44:45;98487.97;;;15.23;100.00
20394;BME280;10356;50.544;9.642;2023-08-24T02:47:12;98485.88;;;15.26;100.00
20394;BME280;10356;50.544;9.642;2023-08-24T02:49:40;98491.28;;;15.25;100.00
20394;BME280;10356;50.544;9.642;2023-08-24T02:52:07;98478.59;;;15.20;100.00
20394;BME280;10356;50.544;9.642;2023-08-24T02:54:34;98477.91;;;15.18;100.00
20394;BME280;10356;50.544;9.642;2023-08-24T02:57:00;98487.72;;;15.16;100.00
20394;BME280;10356;50.544;9.642;2023-08-24T02:59:27;98489.50;;;15.15;100.00
20394;BME280;10356;50.544;9.642;2023-08-24T03:01:54;98488.81;;;15.13;100.00
20394;BME280;10356;50.544;9.642;2023-08-24T03:04:20;98489.13;;;15.10;100.00
20394;BME280;10356;50.544;9.642;2023-08-24T03:06:47;98490.63;;;15.03;100.00
20394;BME280;10356;50.544;9.642;2023-08-24T03:09:15;98499.34;;;15.04;100.00
20394;BME280;10356;50.544;9.642;2023-08-24T03:11:42;98498.81;;;15.00;100.00
20394;BME280;10356;50.544;9.642;2023-08-24T03:14:08;98503.63;;;14.95;100.00
20394;BME280;10356;50.544;9.642;2023-08-24T03:16:37;98503.78;;;14.94;100.00
20394;BME280;10356;50.544;9.642;2023-08-24T03:19:03;98498.66;;;14.92;100.00
20394;BME280;10356;50.544;9.642;2023-08-24T03:21:29;98497.41;;;14.87;100.00
20394;BME280;10356;50.544;9.642;2023-08-24T03:23:56;98497.41;;;14.87;100.00
20394;BME280;10356;50.544;9.642;2023-08-24T03:26:24;98495.22;;;14.82;100.00
20394;BME280;10356;50.544;9.642;2023-08-24T03:28:51;98494.38;;;14.82;100.00
20394;BME280;10356;50.544;9.642;2023-08-24T03:31:17;98493.00;;;14.78;100.00
20394;BME280;10356;50.544;9.642;2023-08-24T03:33:44;98489.69;;;14.76;100.00
20394;BME280;10356;50.544;9.642;2023-08-24T03:36:10;98486.53;;;14.72;100.00
20394;BME280;10356;50.544;9.642;2023-08-24T03:38:38;98487.22;;;14.74;100.00
20394;BME280;10356;50.544;9.642;2023-08-24T03:41:04;98489.00;;;14.74;100.00
20394;BME280;10356;50.544;9.642;2023-08-24T03:43:34;98485.97;;;14.69;100.00
20394;BME280;10356;50.544;9.642;2023-08-24T03:46:02;98493.81;;;14.69;100.00
20394;BME280;10356;50.544;9.642;2023-08-24T03:48:29;98489.81;;;14.65;100.00
20394;BME280;10356;50.544;9.642;2023-08-24T03:50:55;98492.59;;;14.63;100.00
20394;BME280;10356;50.544;9.642;2023-08-24T03:53:23;98483.88;;;14.63;100.00
20394;BME280;10356;50.544;9.642;2023-08-24T03:55:50;98484.59;;;14.65;100.00
20394;BME280;10356;50.544;9.642;2023-08-24T03:58:17;98475.06;;;14.64;100.00
20394;BME280;10356;50.544;9.642;2023-08-24T04:00:45;98486.50;;;14.63;100.00
20394;BME280;10356;50.544;9.642;2023-08-24T04:03:12;98477.00;;;14.62;100.00
20394;BME280;10356;50.544;9.642;2023-08-24T04:05:38;98475.47;;;14.59;100.00
20394;BME280;10356;50.544;9.642;2023-08-24T04:08:05;98482.50;;;14.59;100.00
20394;BME280;10356;50.544;9.642;2023-08-24T04:10:32;98480.03;;;14.57;100.00
20394;BME280;10356;50.544;9.642;2023-08-24T04:12:59;98481.13;;;14.55;100.00
20394;BME280;10356;50.544;9.642;2023-08-24T04:15:25;98477.69;;;14.54;100.00
20394;BME280;10356;50.544;9.642;2023-08-24T04:17:54;98477.56;;;14.56;100.00
20394;BME280;10356;50.544;9.642;2023-08-24T04:20:20;98489.97;;;14.54;100.00
20394;BME280;10356;50.544;9.642;2023-08-24T04:22:47;98478.66;;;14.53;100.00
20394;BME280;10356;50.544;9.642;2023-08-24T04:25:13;98482.81;;;14.56;100.00
20394;BME280;10356;50.544;9.642;2023-08-24T04:27:39;98488.44;;;14.61;100.00
20394;BME280;10356;50.544;9.642;2023-08-24T04:30:07;98492.59;;;14.63;100.00
20394;BME280;10356;50.544;9.642;2023-08-24T04:32:37;98491.34;;;14.67;100.00
20394;BME280;10356;50.544;9.642;2023-08-24T04:35:06;98489.16;;;14.72;100.00
20394;BME280;10356;50.544;9.642;2023-08-24T04:37:33;98483.22;;;14.80;100.00
20394;BME280;10356;50.544;9.642;2023-08-24T04:39:59;98468.97;;;14.92;100.00
20394;BME280;10356;50.544;9.642;2023-08-24T04:42:26;98460.25;;;15.01;100.00
20394;BME280;10356;50.544;9.642;2023-08-24T04:44:52;98465.06;;;15.05;100.00
20394;BME280;10356;50.544;9.642;2023-08-24T04:47:19;98469.91;;;15.10;100.00
20394;BME280;10356;50.544;9.642;2023-08-24T04:49:45;98461.63;;;15.14;100.00
20394;BME280;10356;50.544;9.642;2023-08-24T04:52:13;98450.41;;;15.22;100.00
20394;BME280;10356;50.544;9.642;2023-08-24T04:54:39;98450.66;;;15.29;100.00
20394;BME280;10356;50.544;9.642;2023-08-24T04:57:06;98450.50;;;15.30;100.00
20394;BME280;10356;50.544;9.642;2023-08-24T04:59:32;98456.97;;;15.36;100.00
20394;BME280;10356;50.544;9.642;2023-08-24T05:01:59;98457.13;;;15.44;100.00
20394;BME280;10356;50.544;9.642;2023-08-24T05:04:25;98450.06;;;15.44;100.00
20394;BME280;10356;50.544;9.642;2023-08-24T05:06:52;98446.50;;;15.45;100.00
20394;BME280;10356;50.544;9.642;2023-08-24T05:09:20;98450.31;;;15.41;100.00
20394;BME280;10356;50.544;9.642;2023-08-24T05:11:48;98462.25;;;15.45;100.00
20394;BME280;10356;50.544;9.642;2023-08-24T05:14:14;98455.72;;;15.49;100.00
20394;BME280;10356;50.544;9.642;2023-08-24T05:16:41;98442.28;;;15.52;100.00
20394;BME280;10356;50.544;9.642;2023-08-24T05:19:08;98447.97;;;15.57;100.00
20394;BME280;10356;50.544;9.642;2023-08-24T05:21:34;98438.66;;;15.63;100.00
20394;BME280;10356;50.544;9.642;2023-08-24T05:24:01;98436.72;;;15.65;100.00
20394;BME280;10356;50.544;9.642;2023-08-24T05:26:30;98435.69;;;15.75;100.00
20394;BME280;10356;50.544;9.642;2023-08-24T05:28:57;98440.59;;;15.88;100.00
20394;BME280;10356;50.544;9.642;2023-08-24T05:31:23;98434.97;;;16.01;100.00
20394;BME280;10356;50.544;9.642;2023-08-24T05:33:50;98432.44;;;16.09;100.00
20394;BME280;10356;50.544;9.642;2023-08-24T05:36:16;98430.22;;;16.14;100.00
20394;BME280;10356;50.544;9.642;2023-08-24T05:38:43;98433.34;;;16.17;100.00
20394;BME280;10356;50.544;9.642;2023-08-24T05:41:12;98438.47;;;16.19;100.00
20394;BME280;10356;50.544;9.642;2023-08-24T05:43:40;98438.38;;;16.11;100.00
20394;BME280;10356;50.544;9.642;2023-08-24T05:46:07;98427.56;;;16.14;100.00
20394;BME280;10356;50.544;9.642;2023-08-24T05:48:33;98430.13;;;16.06;100.00
20394;BME280;10356;50.544;9.642;2023-08-24T05:51:00;98435.41;;;15.96;100.00
20394;BME280;10356;50.544;9.642;2023-08-24T05:53:26;98454.16;;;16.11;100.00
20394;BME280;10356;50.544;9.642;2023-08-24T05:55:57;98473.16;;;16.22;100.00
20394;BME280;10356;50.544;9.642;2023-08-24T05:58:23;98478.97;;;16.26;100.00
20394;BME280;10356;50.544;9.642;2023-08-24T06:00:57;98487.63;;;16.36;100.00
20394;BME280;10356;50.544;9.642;2023-08-24T06:03:24;98495.19;;;16.39;100.00
20394;BME280;10356;50.544;9.642;2023-08-24T06:05:50;98497.19;;;16.54;100.00
20394;BME280;10356;50.544;9.642;2023-08-24T06:08:17;98504.03;;;16.65;100.00
20394;BME280;10356;50.544;9.642;2023-08-24T06:10:43;98510.22;;;16.73;100.00
20394;BME280;10356;50.544;9.642;2023-08-24T06:13:10;98515.09;;;16.86;100.00
20394;BME280;10356;50.544;9.642;2023-08-24T06:15:36;98503.97;;;16.92;99.48
20394;BME280;10356;50.544;9.642;2023-08-24T06:18:05;98487.66;;;16.89;99.33
20394;BME280;10356;50.544;9.642;2023-08-24T06:20:31;98493.44;;;16.92;98.72
20394;BME280;10356;50.544;9.642;2023-08-24T06:22:58;98501.31;;;17.10;99.06
20394;BME280;10356;50.544;9.642;2023-08-24T06:25:24;98503.69;;;17.21;98.16
20394;BME280;10356;50.544;9.642;2023-08-24T06:27:51;98508.03;;;17.30;97.03
20394;BME280;10356;50.544;9.642;2023-08-24T06:30:17;98512.88;;;17.42;96.26
20394;BME280;10356;50.544;9.642;2023-08-24T06:32:44;98513.72;;;17.69;95.93
20394;BME280;10356;50.544;9.642;2023-08-24T06:35:12;98515.19;;;17.97;93.04
20394;BME280;10356;50.544;9.642;2023-08-24T06:37:43;98523.22;;;18.29;91.71
20394;BME280;10356;50.544;9.642;2023-08-24T06:40:10;98518.00;;;18.45;88.57
20394;BME280;10356;50.544;9.642;2023-08-24T06:42:37;98513.44;;;18.71;86.58
20394;BME280;10356;50.544;9.642;2023-08-24T06:45:04;98518.06;;;18.93;84.81
20394;BME280;10356;50.544;9.642;2023-08-24T06:47:32;98519.56;;;19.04;84.72
20394;BME280;10356;50.544;9.642;2023-08-24T06:49:58;98524.53;;;19.39;84.14
20394;BME280;10356;50.544;9.642;2023-08-24T06:52:26;98530.28;;;19.67;83.02
20394;BME280;10356;50.544;9.642;2023-08-24T06:54:53;98528.59;;;19.74;81.62
20394;BME280;10356;50.544;9.642;2023-08-24T06:57:21;98533.50;;;19.93;80.75
20394;BME280;10356;50.544;9.642;2023-08-24T06:59:48;98535.75;;;20.04;80.36
20394;BME280;10356;50.544;9.642;2023-08-24T07:02:14;98540.44;;;20.41;78.98
20394;BME280;10356;50.544;9.642;2023-08-24T07:04:43;98534.53;;;20.61;77.24
20394;BME280;10356;50.544;9.642;2023-08-24T07:07:10;98532.13;;;20.74;77.07
20394;BME280;10356;50.544;9.642;2023-08-24T07:09:38;98527.22;;;20.63;76.70
20394;BME280;10356;50.544;9.642;2023-08-24T07:12:05;98516.03;;;20.53;76.20
20394;BME280;10356;50.544;9.642;2023-08-24T07:14:32;98521.97;;;20.17;78.38
20394;BME280;10356;50.544;9.642;2023-08-24T07:16:58;98510.78;;;19.52;81.64
20394;BME280;10356;50.544;9.642;2023-08-24T07:19:25;98495.56;;;19.62;81.87
20394;BME280;10356;50.544;9.642;2023-08-24T07:21:52;98489.50;;;19.53;82.98
20394;BME280;10356;50.544;9.642;2023-08-24T07:24:18;98490.31;;;19.46;85.09
20394;BME280;10356;50.544;9.642;2023-08-24T07:26:47;98473.16;;;19.34;85.69
20394;BME280;10356;50.544;9.642;2023-08-24T07:29:13;98481.41;;;19.22;86.55
20394;BME280;10356;50.544;9.642;2023-08-24T07:31:40;98484.22;;;19.21;87.63
20394;BME280;10356;50.544;9.642;2023-08-24T07:34:06;98488.69;;;19.20;91.10
20394;BME280;10356;50.544;9.642;2023-08-24T07:36:33;98477.44;;;19.26;92.80
20394;BME280;10356;50.544;9.642;2023-08-24T07:39:00;98481.56;;;19.29;96.19
20394;BME280;10356;50.544;9.642;2023-08-24T07:41:27;98486.22;;;19.35;96.95
20394;BME280;10356;50.544;9.642;2023-08-24T07:43:54;98477.47;;;19.43;97.27
20394;BME280;10356;50.544;9.642;2023-08-24T07:46:21;98467.38;;;19.46;97.29
20394;BME280;10356;50.544;9.642;2023-08-24T07:48:48;98456.81;;;19.38;92.51
20394;BME280;10356;50.544;9.642;2023-08-24T07:51:14;98447.72;;;19.41;93.92
20394;BME280;10356;50.544;9.642;2023-08-24T07:53:41;98419.31;;;19.43;95.67
20394;BME280;10356;50.544;9.642;2023-08-24T07:56:08;98404.78;;;19.39;92.62
20394;BME280;10356;50.544;9.642;2023-08-24T07:58:35;98403.66;;;19.33;94.03
20394;BME280;10356;50.544;9.642;2023-08-24T08:01:04;98394.88;;;19.33;95.66
20394;BME280;10356;50.544;9.642;2023-08-24T08:03:30;98394.38;;;19.37;93.98
20394;BME280;10356;50.544;9.642;2023-08-24T08:05:57;98387.22;;;19.46;94.15
20394;BME280;10356;50.544;9.642;2023-08-24T08:08:24;98379.59;;;19.59;96.51
20394;BME280;10356;50.544;9.642;2023-08-24T08:10:57;98382.13;;;19.83;96.79
20394;BME280;10356;50.544;9.642;2023-08-24T08:13:24;98361.50;;;20.01;94.15
20394;BME280;10356;50.544;9.642;2023-08-24T08:15:51;98361.59;;;20.16;90.89
20394;BME280;10356;50.544;9.642;2023-08-24T08:18:19;98352.00;;;20.37;90.38
20394;BME280;10356;50.544;9.642;2023-08-24T08:20:45;98355.81;;;20.57;91.76
20394;BME280;10356;50.544;9.642;2023-08-24T08:23:12;98359.59;;;20.77;90.10
20394;BME280;10356;50.544;9.642;2023-08-24T08:25:39;98356.66;;;21.10;87.98
20394;BME280;10356;50.544;9.642;2023-08-24T08:28:07;98355.53;;;21.33;84.92
20394;BME280;10356;50.544;9.642;2023-08-24T08:30:34;98356.63;;;21.53;83.63
20394;BME280;10356;50.544;9.642;2023-08-24T08:33:00;98352.97;;;21.69;82.59
20394;BME280;10356;50.544;9.642;2023-08-24T08:35:28;98347.25;;;21.72;80.39
20394;BME280;10356;50.544;9.642;2023-08-24T08:37:55;98350.66;;;21.66;81.14
20394;BME280;10356;50.544;9.642;2023-08-24T08:40:23;98346.00;;;21.83;79.15
20394;BME280;10356;50.544;9.642;2023-08-24T08:42:55;98358.72;;;22.08;77.75
20394;BME280;10356;50.544;9.642;2023-08-24T08:45:24;98368.47;;;22.22;78.78
20394;BME280;10356;50.544;9.642;2023-08-24T08:47:51;98376.16;;;22.38;79.38
20394;BME280;10356;50.544;9.642;2023-08-24T08:50:20;98369.69;;;22.62;78.34
20394;BME280;10356;50.544;9.642;2023-08-24T08:52:48;98361.25;;;22.80;76.91
20394;BME280;10356;50.544;9.642;2023-08-24T08:55:14;98356.78;;;22.87;77.26
20394;BME280;10356;50.544;9.642;2023-08-24T08:57:41;98346.97;;;22.87;74.21
20394;BME280;10356;50.544;9.642;2023-08-24T09:00:10;98338.81;;;22.89;73.59
20394;BME280;10356;50.544;9.642;2023-08-24T09:02:39;98339.28;;;22.99;73.05
20394;BME280;10356;50.544;9.642;2023-08-24T09:05:09;98335.22;;;23.03;75.04
20394;BME280;10356;50.544;9.642;2023-08-24T09:07:36;98335.31;;;23.16;73.79
20394;BME280;10356;50.544;9.642;2023-08-24T09:10:07;98331.91;;;23.28;73.71
20394;BME280;10356;50.544;9.642;2023-08-24T09:12:35;98314.72;;;23.78;68.94
20394;BME280;10356;50.544;9.642;2023-08-24T09:15:03;98312.19;;;24.24;65.78
20394;BME280;10356;50.544;9.642;2023-08-24T09:17:30;98307.69;;;24.64;64.16
20394;BME280;10356;50.544;9.642;2023-08-24T09:19:59;98302.69;;;25.13;61.03
20394;BME280;10356;50.544;9.642;2023-08-24T09:22:26;98297.03;;;25.54;58.07
20394;BME280;10356;50.544;9.642;2023-08-24T09:24:52;98308.06;;;25.70;57.96
20394;BME280;10356;50.544;9.642;2023-08-24T09:27:21;98306.94;;;25.91;58.40
20394;BME280;10356;50.544;9.642;2023-08-24T09:29:48;98307.50;;;26.00;58.00
20394;BME280;10356;50.544;9.642;2023-08-24T09:32:15;98309.09;;;26.63;58.36
20394;BME280;10356;50.544;9.642;2023-08-24T09:34:47;98302.53;;;26.59;56.10
20394;BME280;10356;50.544;9.642;2023-08-24T09:37:14;98301.03;;;26.94;55.62
20394;BME280;10356;50.544;9.642;2023-08-24T09:39:41;98297.81;;;27.22;54.78
20394;BME280;10356;50.544;9.642;2023-08-24T09:42:08;98300.16;;;27.36;53.72
20394;BME280;10356;50.544;9.642;2023-08-24T09:44:36;98286.31;;;27.39;53.91
20394;BME280;10356;50.544;9.642;2023-08-24T09:47:09;98277.66;;;27.56;54.04
20394;BME280;10356;50.544;9.642;2023-08-24T09:49:35;98276.13;;;27.78;54.48
20394;BME280;10356;50.544;9.642;2023-08-24T09:52:02;98270.66;;;28.02;52.32
20394;BME280;10356;50.544;9.642;2023-08-24T09:54:36;98274.34;;;28.31;52.48
20394;BME280;10356;50.544;9.642;2023-08-24T09:57:04;98264.94;;;28.75;51.69
20394;BME280;10356;50.544;9.642;2023-08-24T09:59:32;98270.66;;;28.67;51.70
20394;BME280;10356;50.544;9.642;2023-08-24T10:02:02;98261.22;;;28.76;51.09
20394;BME280;10356;50.544;9.642;2023-08-24T10:04:34;98257.47;;;28.65;50.41
20394;BME280;10356;50.544;9.642;2023-08-24T10:07:05;98249.13;;;29.13;49.39
20394;BME280;10356;50.544;9.642;2023-08-24T10:09:36;98241.31;;;29.12;50.40
20394;BME280;10356;50.544;9.642;2023-08-24T10:12:06;98228.00;;;29.28;49.95
20394;BME280;10356;50.544;9.642;2023-08-24T10:14:41;98221.00;;;29.55;49.34
20394;BME280;10356;50.544;9.642;2023-08-24T10:17:12;98221.16;;;29.21;49.13
20394;BME280;10356;50.544;9.642;2023-08-24T10:19:40;98213.31;;;29.31;50.48
20394;BME280;10356;50.544;9.642;2023-08-24T10:22:07;98206.66;;;29.22;50.31
20394;BME280;10356;50.544;9.642;2023-08-24T10:24:35;98207.03;;;29.70;48.12
20394;BME280;10356;50.544;9.642;2023-08-24T10:27:02;98205.19;;;29.70;48.97
20394;BME280;10356;50.544;9.642;2023-08-24T10:29:29;98192.13;;;30.07;47.83
20394;BME280;10356;50.544;9.642;2023-08-24T10:31:56;98192.47;;;30.11;46.65
20394;BME280;10356;50.544;9.642;2023-08-24T10:34:25;98195.72;;;30.13;46.77
20394;BME280;10356;50.544;9.642;2023-08-24T10:36:51;98188.69;;;30.28;45.49
20394;BME280;10356;50.544;9.642;2023-08-24T10:39:26;98180.56;;;30.23;46.00
20394;BME280;10356;50.544;9.642;2023-08-24T10:41:53;98182.69;;;30.38;46.37
20394;BME280;10356;50.544;9.642;2023-08-24T10:44:21;98176.75;;;30.36;45.68
20394;BME280;10356;50.544;9.642;2023-08-24T10:47:18;98173.03;;;30.58;44.99
20394;BME280;10356;50.544;9.642;2023-08-24T10:49:58;98164.88;;;30.70;45.43
20394;BME280;10356;50.544;9.642;2023-08-24T10:52:30;98168.91;;;30.73;45.33
20394;BME280;10356;50.544;9.642;2023-08-24T10:55:00;98165.16;;;30.74;47.03
20394;BME280;10356;50.544;9.642;2023-08-24T10:57:35;98170.03;;;30.93;44.30
20394;BME280;10356;50.544;9.642;2023-08-24T11:00:04;98160.28;;;30.71;44.58
20394;BME280;10356;50.544;9.642;2023-08-24T11:02:41;98162.88;;;30.82;45.90
20394;BME280;10356;50.544;9.642;2023-08-24T11:05:15;98162.03;;;30.98;44.04
20394;BME280;10356;50.544;9.642;2023-08-24T11:07:53;98160.41;;;30.81;42.33
20394;BME280;10356;50.544;9.642;2023-08-24T11:10:20;98171.78;;;31.04;40.69
20394;BME280;10356;50.544;9.642;2023-08-24T11:13:07;98169.84;;;31.00;40.96
20394;BME280;10356;50.544;9.642;2023-08-24T11:15:37;98174.72;;;31.24;40.41
20394;BME280;10356;50.544;9.642;2023-08-24T11:18:28;98168.75;;;31.22;41.00
20394;BME280;10356;50.544;9.642;2023-08-24T11:21:00;98169.44;;;31.34;40.80
20394;BME280;10356;50.544;9.642;2023-08-24T11:23:27;98169.00;;;31.69;40.38
20394;BME280;10356;50.544;9.642;2023-08-24T11:25:55;98180.16;;;32.09;40.71
20394;BME280;10356;50.544;9.642;2023-08-24T11:28:23;98172.16;;;31.61;37.21
20394;BME280;10356;50.544;9.642;2023-08-24T11:30:51;98179.28;;;31.24;38.87
20394;BME280;10356;50.544;9.642;2023-08-24T11:33:27;98177.31;;;30.93;40.22
20394;BME280;10356;50.544;9.642;2023-08-24T11:35:56;98182.91;;;30.91;39.90
20394;BME280;10356;50.544;9.642;2023-08-24T11:38:22;98174.28;;;30.89;40.19
20394;BME280;10356;50.544;9.642;2023-08-24T11:40:49;98176.03;;;31.00;40.02
20394;BME280;10356;50.544;9.642;2023-08-24T11:43:24;98173.59;;;31.20;40.26
20394;BME280;10356;50.544;9.642;2023-08-24T11:45:50;98175.72;;;31.18;38.30
20394;BME280;10356;50.544;9.642;2023-08-24T11:48:17;98165.09;;;31.07;39.59
20394;BME280;10356;50.544;9.642;2023-08-24T11:50:44;98158.81;;;31.50;39.39
20394;BME280;10356;50.544;9.642;2023-08-24T11:53:12;98173.31;;;31.70;38.11
20394;BME280;10356;50.544;9.642;2023-08-24T11:55:39;98165.50;;;32.00;36.92
20394;BME280;10356;50.544;9.642;2023-08-24T11:58:13;98162.34;;;32.08;37.30
20394;BME280;10356;50.544;9.642;2023-08-24T12:00:40;98159.28;;;32.37;39.57
20394;BME280;10356;50.544;9.642;2023-08-24T12:03:06;98150.09;;;32.28;35.90
20394;BME280;10356;50.544;9.642;2023-08-24T12:05:33;98150.16;;;32.38;35.73
20394;BME280;10356;50.544;9.642;2023-08-24T12:08:00;98148.97;;;32.23;37.13
20394;BME280;10356;50.544;9.642;2023-08-24T12:10:27;98136.75;;;32.53;37.63
20394;BME280;10356;50.544;9.642;2023-08-24T12:13:02;98133.06;;;32.64;37.83
20394;BME280;10356;50.544;9.642;2023-08-24T12:15:28;98130.91;;;32.71;35.13
20394;BME280;10356;50.544;9.642;2023-08-24T12:17:55;98125.41;;;32.46;37.70
20394;BME280;10356;50.544;9.642;2023-08-24T12:20:22;98116.94;;;32.37;35.58
20394;BME280;10356;50.544;9.642;2023-08-24T12:22:53;98106.94;;;32.28;35.42
20394;BME280;10356;50.544;9.642;2023-08-24T12:25:23;98103.69;;;32.25;35.90
20394;BME280;10356;50.544;9.642;2023-08-24T12:27:52;98109.72;;;32.01;36.12
20394;BME280;10356;50.544;9.642;2023-08-24T12:30:19;98101.34;;;31.97;35.83
20394;BME280;10356;50.544;9.642;2023-08-24T12:32:47;98090.28;;;31.67;37.03
20394;BME280;10356;50.544;9.642;2023-08-24T12:35:16;98072.13;;;31.58;36.47
20394;BME280;10356;50.544;9.642;2023-08-24T12:37:42;98076.31;;;31.38;35.74
20394;BME280;10356;50.544;9.642;2023-08-24T12:40:09;98083.16;;;31.51;36.19
20394;BME280;10356;50.544;9.642;2023-08-24T12:42:36;98091.91;;;31.68;35.55
20394;BME280;10356;50.544;9.642;2023-08-24T12:45:04;98083.81;;;31.68;36.57
20394;BME280;10356;50.544;9.642;2023-08-24T12:47:31;98087.91;;;31.76;35.87
20394;BME280;10356;50.544;9.642;2023-08-24T12:50:00;98089.69;;;31.60;35.11
20394;BME280;10356;50.544;9.642;2023-08-24T12:52:26;98104.91;;;31.76;36.57
20394;BME280;10356;50.544;9.642;2023-08-24T12:54:53;98103.84;;;32.09;35.92
20394;BME280;10356;50.544;9.642;2023-08-24T12:57:19;98090.69;;;32.17;36.80
20394;BME280;10356;50.544;9.642;2023-08-24T12:59:46;98087.22;;;32.22;35.02
20394;BME280;10356;50.544;9.642;2023-08-24T13:02:14;98075.50;;;32.06;35.11